FABL/BFN METAR and TAF weather

Enter ICAO airport designator
Station Type Date Time Source
FABL METAR 2018/10/22 16:00 UTC NOAA

FABL 221600Z 01005KT 350V050 CAVOK 21/M00 Q1029 NOSIG


Station Type Date Time Source
FABL Decoded METAR 2018/10/22 16:00 UTC NOAA

Bloemfontein, Bloemfontein Airport, South Africa (FABL) 29-06S 026-18E 1400M
Oct 22, 2018 - 12:00 PM EDT / 2018.10.22 1600 UTC
Wind: from the N (010 degrees) at 6 MPH (5 KT) (direction variable):0
Visibility: greater than 7 mile(s):0
Temperature: 69 F (21 C)
Dew Point: 32 F (0 C)
Relative Humidity: 24%
Pressure (altimeter): 30.39 in. Hg (1029 hPa)
ob: FABL 221600Z 01005KT 350V050 CAVOK 21/M00 Q1029 NOSIG
cycle: 16

Station Type Date Time Source
FABL TAF 2018/10/22 18:15 UTC NOAA

TAF FABL 221600Z 2218/2318 03010KT CAVOK TX25/2312Z TN09/2304Z


Example: see airport list